sensor_id;sensor_type;location;lat;lon;timestamp;P1;durP1;ratioP1;P2;durP2;ratioP2
23702;SDS011;12030;50.376;8.762;2024-02-28T00:01:38;14.60;;;9.30;;
23702;SDS011;12030;50.376;8.762;2024-02-28T00:04:16;12.13;;;9.33;;
23702;SDS011;12030;50.376;8.762;2024-02-28T00:06:41;13.53;;;9.20;;
23702;SDS011;12030;50.376;8.762;2024-02-28T00:09:07;13.53;;;9.83;;
23702;SDS011;12030;50.376;8.762;2024-02-28T00:11:33;19.40;;;10.03;;
23702;SDS011;12030;50.376;8.762;2024-02-28T00:13:58;14.37;;;9.60;;
23702;SDS011;12030;50.376;8.762;2024-02-28T00:16:27;13.37;;;9.67;;
23702;SDS011;12030;50.376;8.762;2024-02-28T00:18:53;14.97;;;10.10;;
23702;SDS011;12030;50.376;8.762;2024-02-28T00:21:18;13.40;;;9.90;;
23702;SDS011;12030;50.376;8.762;2024-02-28T00:23:44;13.77;;;9.67;;
23702;SDS011;12030;50.376;8.762;2024-02-28T00:26:11;12.40;;;9.33;;
23702;SDS011;12030;50.376;8.762;2024-02-28T00:28:37;13.00;;;10.00;;
23702;SDS011;12030;50.376;8.762;2024-02-28T00:31:02;12.70;;;9.70;;
23702;SDS011;12030;50.376;8.762;2024-02-28T00:33:28;13.20;;;9.33;;
23702;SDS011;12030;50.376;8.762;2024-02-28T00:35:53;16.20;;;10.77;;
23702;SDS011;12030;50.376;8.762;2024-02-28T00:38:19;13.93;;;9.60;;
23702;SDS011;12030;50.376;8.762;2024-02-28T00:40:44;12.77;;;9.67;;
23702;SDS011;12030;50.376;8.762;2024-02-28T00:43:10;14.50;;;11.03;;
23702;SDS011;12030;50.376;8.762;2024-02-28T00:45:35;17.60;;;11.23;;
23702;SDS011;12030;50.376;8.762;2024-02-28T00:48:01;15.90;;;11.10;;
23702;SDS011;12030;50.376;8.762;2024-02-28T00:50:27;13.40;;;9.67;;
23702;SDS011;12030;50.376;8.762;2024-02-28T00:52:52;15.70;;;10.67;;
23702;SDS011;12030;50.376;8.762;2024-02-28T00:55:18;17.27;;;11.13;;
23702;SDS011;12030;50.376;8.762;2024-02-28T00:57:43;14.13;;;10.53;;
23702;SDS011;12030;50.376;8.762;2024-02-28T01:00:09;14.17;;;10.93;;
23702;SDS011;12030;50.376;8.762;2024-02-28T01:02:35;15.07;;;10.53;;
23702;SDS011;12030;50.376;8.762;2024-02-28T01:05:01;15.43;;;11.10;;
23702;SDS011;12030;50.376;8.762;2024-02-28T01:07:26;14.57;;;11.10;;
23702;SDS011;12030;50.376;8.762;2024-02-28T01:09:52;15.50;;;10.50;;
23702;SDS011;12030;50.376;8.762;2024-02-28T01:12:18;16.77;;;11.10;;
23702;SDS011;12030;50.376;8.762;2024-02-28T01:14:43;14.73;;;10.80;;
23702;SDS011;12030;50.376;8.762;2024-02-28T01:17:09;17.73;;;12.17;;
23702;SDS011;12030;50.376;8.762;2024-02-28T01:19:34;15.50;;;10.90;;
23702;SDS011;12030;50.376;8.762;2024-02-28T01:22:00;16.30;;;11.40;;
23702;SDS011;12030;50.376;8.762;2024-02-28T01:24:25;16.70;;;11.73;;
23702;SDS011;12030;50.376;8.762;2024-02-28T01:26:51;15.60;;;10.83;;
23702;SDS011;12030;50.376;8.762;2024-02-28T01:29:16;14.67;;;11.00;;
23702;SDS011;12030;50.376;8.762;2024-02-28T01:31:42;17.23;;;11.93;;
23702;SDS011;12030;50.376;8.762;2024-02-28T01:34:07;15.93;;;10.63;;
23702;SDS011;12030;50.376;8.762;2024-02-28T01:36:33;15.63;;;11.57;;
23702;SDS011;12030;50.376;8.762;2024-02-28T01:38:58;16.87;;;11.77;;
23702;SDS011;12030;50.376;8.762;2024-02-28T01:41:24;14.83;;;11.30;;
23702;SDS011;12030;50.376;8.762;2024-02-28T01:43:49;14.40;;;10.93;;
23702;SDS011;12030;50.376;8.762;2024-02-28T01:46:28;18.13;;;12.23;;
23702;SDS011;12030;50.376;8.762;2024-02-28T01:48:54;14.20;;;10.60;;
23702;SDS011;12030;50.376;8.762;2024-02-28T01:51:22;18.50;;;11.73;;
23702;SDS011;12030;50.376;8.762;2024-02-28T01:53:49;14.23;;;10.73;;
23702;SDS011;12030;50.376;8.762;2024-02-28T01:56:16;15.57;;;11.17;;
23702;SDS011;12030;50.376;8.762;2024-02-28T01:58:43;14.73;;;10.20;;
23702;SDS011;12030;50.376;8.762;2024-02-28T02:01:11;12.67;;;9.60;;
23702;SDS011;12030;50.376;8.762;2024-02-28T02:03:38;13.67;;;10.43;;
23702;SDS011;12030;50.376;8.762;2024-02-28T02:06:04;12.93;;;9.60;;
23702;SDS011;12030;50.376;8.762;2024-02-28T02:08:30;14.10;;;9.70;;
23702;SDS011;12030;50.376;8.762;2024-02-28T02:10:56;16.30;;;11.30;;
23702;SDS011;12030;50.376;8.762;2024-02-28T02:13:22;17.87;;;11.13;;
23702;SDS011;12030;50.376;8.762;2024-02-28T02:15:47;16.03;;;11.63;;
23702;SDS011;12030;50.376;8.762;2024-02-28T02:18:13;14.27;;;9.43;;
23702;SDS011;12030;50.376;8.762;2024-02-28T02:20:38;14.10;;;10.57;;
23702;SDS011;12030;50.376;8.762;2024-02-28T02:23:08;14.27;;;10.17;;
23702;SDS011;12030;50.376;8.762;2024-02-28T02:25:34;16.30;;;11.03;;
23702;SDS011;12030;50.376;8.762;2024-02-28T02:28:07;13.17;;;9.33;;
23702;SDS011;12030;50.376;8.762;2024-02-28T02:30:33;16.77;;;11.40;;
23702;SDS011;12030;50.376;8.762;2024-02-28T02:32:58;15.53;;;10.30;;
23702;SDS011;12030;50.376;8.762;2024-02-28T02:35:24;15.97;;;11.17;;
23702;SDS011;12030;50.376;8.762;2024-02-28T02:37:49;15.20;;;9.90;;
23702;SDS011;12030;50.376;8.762;2024-02-28T02:40:15;14.00;;;10.03;;
23702;SDS011;12030;50.376;8.762;2024-02-28T02:42:41;13.97;;;9.70;;
23702;SDS011;12030;50.376;8.762;2024-02-28T02:45:06;15.63;;;11.10;;
23702;SDS011;12030;50.376;8.762;2024-02-28T02:47:32;15.63;;;10.80;;
23702;SDS011;12030;50.376;8.762;2024-02-28T02:49:58;15.53;;;11.03;;
23702;SDS011;12030;50.376;8.762;2024-02-28T02:52:23;14.63;;;10.93;;
23702;SDS011;12030;50.376;8.762;2024-02-28T02:54:49;18.73;;;12.07;;
23702;SDS011;12030;50.376;8.762;2024-02-28T02:57:14;19.23;;;11.10;;
23702;SDS011;12030;50.376;8.762;2024-02-28T02:59:40;16.37;;;10.57;;
23702;SDS011;12030;50.376;8.762;2024-02-28T03:02:05;16.57;;;11.17;;
23702;SDS011;12030;50.376;8.762;2024-02-28T03:04:31;17.17;;;11.67;;
23702;SDS011;12030;50.376;8.762;2024-02-28T03:06:56;18.33;;;12.37;;
23702;SDS011;12030;50.376;8.762;2024-02-28T03:09:22;19.97;;;13.53;;
23702;SDS011;12030;50.376;8.762;2024-02-28T03:11:48;21.20;;;13.03;;
23702;SDS011;12030;50.376;8.762;2024-02-28T03:14:13;21.47;;;13.27;;
23702;SDS011;12030;50.376;8.762;2024-02-28T03:16:42;20.20;;;12.70;;
23702;SDS011;12030;50.376;8.762;2024-02-28T03:19:09;19.73;;;13.07;;
23702;SDS011;12030;50.376;8.762;2024-02-28T03:21:35;18.90;;;12.03;;
23702;SDS011;12030;50.376;8.762;2024-02-28T03:24:01;18.33;;;12.23;;
23702;SDS011;12030;50.376;8.762;2024-02-28T03:26:27;17.00;;;11.33;;
23702;SDS011;12030;50.376;8.762;2024-02-28T03:28:52;17.87;;;12.47;;
23702;SDS011;12030;50.376;8.762;2024-02-28T03:31:18;16.30;;;11.63;;
23702;SDS011;12030;50.376;8.762;2024-02-28T03:33:44;20.63;;;13.37;;
23702;SDS011;12030;50.376;8.762;2024-02-28T03:36:11;19.87;;;14.00;;
23702;SDS011;12030;50.376;8.762;2024-02-28T03:38:37;18.73;;;13.77;;
23702;SDS011;12030;50.376;8.762;2024-02-28T03:41:03;15.70;;;11.50;;
23702;SDS011;12030;50.376;8.762;2024-02-28T03:43:28;17.83;;;11.77;;
23702;SDS011;12030;50.376;8.762;2024-02-28T03:45:54;16.47;;;11.20;;
23702;SDS011;12030;50.376;8.762;2024-02-28T03:48:19;21.77;;;13.27;;
23702;SDS011;12030;50.376;8.762;2024-02-28T03:50:45;14.97;;;10.43;;
23702;SDS011;12030;50.376;8.762;2024-02-28T03:53:10;16.17;;;11.57;;
23702;SDS011;12030;50.376;8.762;2024-02-28T03:55:36;21.00;;;13.10;;
23702;SDS011;12030;50.376;8.762;2024-02-28T03:58:02;19.07;;;13.53;;
23702;SDS011;12030;50.376;8.762;2024-02-28T04:00:28;20.60;;;12.47;;
23702;SDS011;12030;50.376;8.762;2024-02-28T04:02:54;20.40;;;12.63;;
23702;SDS011;12030;50.376;8.762;2024-02-28T04:05:20;20.63;;;11.80;;
23702;SDS011;12030;50.376;8.762;2024-02-28T04:07:46;18.27;;;12.47;;
23702;SDS011;12030;50.376;8.762;2024-02-28T04:10:11;18.67;;;12.37;;
23702;SDS011;12030;50.376;8.762;2024-02-28T04:12:37;18.17;;;12.03;;
23702;SDS011;12030;50.376;8.762;2024-02-28T04:15:02;19.27;;;12.33;;
23702;SDS011;12030;50.376;8.762;2024-02-28T04:17:28;19.20;;;12.30;;
23702;SDS011;12030;50.376;8.762;2024-02-28T04:19:54;19.07;;;13.20;;
23702;SDS011;12030;50.376;8.762;2024-02-28T04:22:22;18.20;;;12.97;;
23702;SDS011;12030;50.376;8.762;2024-02-28T04:24:48;18.87;;;12.57;;
23702;SDS011;12030;50.376;8.762;2024-02-28T04:27:13;18.80;;;11.47;;
23702;SDS011;12030;50.376;8.762;2024-02-28T04:29:39;18.07;;;12.47;;
23702;SDS011;12030;50.376;8.762;2024-02-28T04:32:04;17.53;;;11.87;;
23702;SDS011;12030;50.376;8.762;2024-02-28T04:34:30;18.53;;;12.20;;
23702;SDS011;12030;50.376;8.762;2024-02-28T04:36:55;23.20;;;14.00;;
23702;SDS011;12030;50.376;8.762;2024-02-28T04:39:21;15.83;;;11.10;;
23702;SDS011;12030;50.376;8.762;2024-02-28T04:41:46;16.40;;;12.20;;
23702;SDS011;12030;50.376;8.762;2024-02-28T04:44:12;16.83;;;11.27;;
23702;SDS011;12030;50.376;8.762;2024-02-28T04:46:37;15.93;;;10.30;;
23702;SDS011;12030;50.376;8.762;2024-02-28T04:49:03;16.53;;;11.60;;
23702;SDS011;12030;50.376;8.762;2024-02-28T04:51:29;18.90;;;12.50;;
23702;SDS011;12030;50.376;8.762;2024-02-28T04:53:54;21.37;;;12.47;;
23702;SDS011;12030;50.376;8.762;2024-02-28T04:56:20;18.63;;;12.90;;
23702;SDS011;12030;50.376;8.762;2024-02-28T04:58:45;18.47;;;12.53;;
23702;SDS011;12030;50.376;8.762;2024-02-28T05:01:11;18.93;;;12.37;;
23702;SDS011;12030;50.376;8.762;2024-02-28T05:03:37;21.33;;;13.70;;
23702;SDS011;12030;50.376;8.762;2024-02-28T05:06:03;19.37;;;12.63;;
23702;SDS011;12030;50.376;8.762;2024-02-28T05:08:29;19.93;;;13.23;;
23702;SDS011;12030;50.376;8.762;2024-02-28T05:10:54;18.40;;;12.40;;
23702;SDS011;12030;50.376;8.762;2024-02-28T05:13:20;18.60;;;12.03;;
23702;SDS011;12030;50.376;8.762;2024-02-28T05:15:47;18.37;;;13.30;;
23702;SDS011;12030;50.376;8.762;2024-02-28T05:18:12;20.73;;;13.03;;
23702;SDS011;12030;50.376;8.762;2024-02-28T05:20:38;21.20;;;13.30;;
23702;SDS011;12030;50.376;8.762;2024-02-28T05:23:03;20.57;;;13.00;;
23702;SDS011;12030;50.376;8.762;2024-02-28T05:25:29;19.90;;;13.60;;
23702;SDS011;12030;50.376;8.762;2024-02-28T05:27:54;22.37;;;13.50;;
23702;SDS011;12030;50.376;8.762;2024-02-28T05:30:20;22.47;;;13.73;;
23702;SDS011;12030;50.376;8.762;2024-02-28T05:32:46;21.60;;;13.80;;
23702;SDS011;12030;50.376;8.762;2024-02-28T05:35:11;21.97;;;14.27;;
23702;SDS011;12030;50.376;8.762;2024-02-28T05:37:37;27.17;;;15.63;;
23702;SDS011;12030;50.376;8.762;2024-02-28T05:40:02;18.87;;;12.80;;
23702;SDS011;12030;50.376;8.762;2024-02-28T05:42:28;18.30;;;12.10;;
23702;SDS011;12030;50.376;8.762;2024-02-28T05:44:54;21.33;;;12.20;;
23702;SDS011;12030;50.376;8.762;2024-02-28T05:47:19;20.43;;;13.17;;
23702;SDS011;12030;50.376;8.762;2024-02-28T05:49:45;20.77;;;13.20;;
23702;SDS011;12030;50.376;8.762;2024-02-28T05:52:10;20.50;;;13.00;;
23702;SDS011;12030;50.376;8.762;2024-02-28T05:54:36;22.53;;;12.57;;
23702;SDS011;12030;50.376;8.762;2024-02-28T05:57:01;19.70;;;13.47;;
23702;SDS011;12030;50.376;8.762;2024-02-28T05:59:28;21.30;;;12.97;;
23702;SDS011;12030;50.376;8.762;2024-02-28T06:01:54;20.17;;;12.47;;
23702;SDS011;12030;50.376;8.762;2024-02-28T06:04:19;21.93;;;13.30;;
23702;SDS011;12030;50.376;8.762;2024-02-28T06:06:45;22.57;;;13.93;;
23702;SDS011;12030;50.376;8.762;2024-02-28T06:09:10;23.70;;;14.23;;
23702;SDS011;12030;50.376;8.762;2024-02-28T06:11:36;20.70;;;13.53;;
23702;SDS011;12030;50.376;8.762;2024-02-28T06:14:02;25.17;;;16.40;;
23702;SDS011;12030;50.376;8.762;2024-02-28T06:16:29;22.27;;;14.13;;
23702;SDS011;12030;50.376;8.762;2024-02-28T06:18:55;23.53;;;15.63;;
23702;SDS011;12030;50.376;8.762;2024-02-28T06:21:23;23.37;;;14.50;;
23702;SDS011;12030;50.376;8.762;2024-02-28T06:23:49;23.67;;;15.30;;
23702;SDS011;12030;50.376;8.762;2024-02-28T06:26:14;24.93;;;14.60;;
23702;SDS011;12030;50.376;8.762;2024-02-28T06:28:42;21.73;;;14.23;;
23702;SDS011;12030;50.376;8.762;2024-02-28T06:31:14;22.47;;;15.00;;
23702;SDS011;12030;50.376;8.762;2024-02-28T06:33:40;23.57;;;14.93;;
23702;SDS011;12030;50.376;8.762;2024-02-28T06:36:06;27.83;;;16.17;;
23702;SDS011;12030;50.376;8.762;2024-02-28T06:38:31;24.40;;;15.30;;
23702;SDS011;12030;50.376;8.762;2024-02-28T06:40:57;22.17;;;13.67;;
23702;SDS011;12030;50.376;8.762;2024-02-28T06:43:22;24.53;;;14.97;;
23702;SDS011;12030;50.376;8.762;2024-02-28T06:45:48;25.53;;;15.63;;
23702;SDS011;12030;50.376;8.762;2024-02-28T06:48:13;25.07;;;15.53;;
23702;SDS011;12030;50.376;8.762;2024-02-28T06:50:39;25.50;;;15.03;;
23702;SDS011;12030;50.376;8.762;2024-02-28T06:53:04;26.77;;;15.73;;
23702;SDS011;12030;50.376;8.762;2024-02-28T06:55:30;26.27;;;16.47;;
23702;SDS011;12030;50.376;8.762;2024-02-28T06:57:55;27.63;;;16.27;;
23702;SDS011;12030;50.376;8.762;2024-02-28T07:00:22;25.30;;;15.77;;
23702;SDS011;12030;50.376;8.762;2024-02-28T07:02:47;23.47;;;14.97;;
23702;SDS011;12030;50.376;8.762;2024-02-28T07:05:13;25.00;;;15.03;;
23702;SDS011;12030;50.376;8.762;2024-02-28T07:07:38;24.90;;;15.20;;
23702;SDS011;12030;50.376;8.762;2024-02-28T07:10:04;23.83;;;15.30;;
23702;SDS011;12030;50.376;8.762;2024-02-28T07:12:30;25.47;;;15.07;;
23702;SDS011;12030;50.376;8.762;2024-02-28T07:14:56;26.77;;;16.10;;
23702;SDS011;12030;50.376;8.762;2024-02-28T07:17:21;25.43;;;15.37;;
23702;SDS011;12030;50.376;8.762;2024-02-28T07:19:47;28.20;;;16.13;;
23702;SDS011;12030;50.376;8.762;2024-02-28T07:22:13;24.27;;;15.63;;
23702;SDS011;12030;50.376;8.762;2024-02-28T07:24:38;25.60;;;14.90;;
23702;SDS011;12030;50.376;8.762;2024-02-28T07:27:04;26.43;;;15.50;;
23702;SDS011;12030;50.376;8.762;2024-02-28T07:29:29;25.40;;;15.57;;
23702;SDS011;12030;50.376;8.762;2024-02-28T07:31:55;25.37;;;15.07;;
23702;SDS011;12030;50.376;8.762;2024-02-28T07:34:21;24.07;;;15.67;;
23702;SDS011;12030;50.376;8.762;2024-02-28T07:36:46;22.83;;;14.80;;
23702;SDS011;12030;50.376;8.762;2024-02-28T07:39:12;22.73;;;14.17;;
23702;SDS011;12030;50.376;8.762;2024-02-28T07:41:40;23.97;;;15.07;;
23702;SDS011;12030;50.376;8.762;2024-02-28T07:44:06;23.97;;;14.97;;
23702;SDS011;12030;50.376;8.762;2024-02-28T07:46:36;22.03;;;14.77;;
23702;SDS011;12030;50.376;8.762;2024-02-28T07:49:01;25.03;;;15.00;;
23702;SDS011;12030;50.376;8.762;2024-02-28T07:51:27;22.47;;;14.50;;
23702;SDS011;12030;50.376;8.762;2024-02-28T07:53:53;24.37;;;14.43;;
23702;SDS011;12030;50.376;8.762;2024-02-28T07:56:20;22.53;;;14.33;;
23702;SDS011;12030;50.376;8.762;2024-02-28T07:58:46;27.00;;;16.03;;
23702;SDS011;12030;50.376;8.762;2024-02-28T08:01:11;26.20;;;14.97;;
23702;SDS011;12030;50.376;8.762;2024-02-28T08:03:37;27.93;;;15.70;;
23702;SDS011;12030;50.376;8.762;2024-02-28T08:06:03;27.60;;;15.17;;
23702;SDS011;12030;50.376;8.762;2024-02-28T08:08:29;25.33;;;14.77;;
23702;SDS011;12030;50.376;8.762;2024-02-28T08:10:54;26.63;;;15.40;;
23702;SDS011;12030;50.376;8.762;2024-02-28T08:13:20;26.37;;;15.20;;
23702;SDS011;12030;50.376;8.762;2024-02-28T08:15:46;27.70;;;16.03;;
23702;SDS011;12030;50.376;8.762;2024-02-28T08:18:11;31.07;;;15.87;;
23702;SDS011;12030;50.376;8.762;2024-02-28T08:20:37;28.27;;;15.10;;
23702;SDS011;12030;50.376;8.762;2024-02-28T08:23:03;26.07;;;16.07;;
23702;SDS011;12030;50.376;8.762;2024-02-28T08:25:29;25.63;;;14.73;;
23702;SDS011;12030;50.376;8.762;2024-02-28T08:27:55;26.13;;;14.43;;
23702;SDS011;12030;50.376;8.762;2024-02-28T08:30:21;27.37;;;15.73;;
23702;SDS011;12030;50.376;8.762;2024-02-28T08:32:47;25.40;;;15.27;;
23702;SDS011;12030;50.376;8.762;2024-02-28T08:35:12;26.33;;;13.93;;
23702;SDS011;12030;50.376;8.762;2024-02-28T08:37:38;24.03;;;14.63;;
23702;SDS011;12030;50.376;8.762;2024-02-28T08:40:04;23.13;;;14.33;;
23702;SDS011;12030;50.376;8.762;2024-02-28T08:42:30;23.67;;;15.10;;
23702;SDS011;12030;50.376;8.762;2024-02-28T08:44:56;25.50;;;14.97;;
23702;SDS011;12030;50.376;8.762;2024-02-28T08:47:24;25.60;;;14.77;;
23702;SDS011;12030;50.376;8.762;2024-02-28T08:49:51;25.47;;;15.27;;
23702;SDS011;12030;50.376;8.762;2024-02-28T08:52:17;26.17;;;15.50;;
23702;SDS011;12030;50.376;8.762;2024-02-28T08:54:42;28.00;;;16.70;;
23702;SDS011;12030;50.376;8.762;2024-02-28T08:57:08;26.70;;;15.97;;
23702;SDS011;12030;50.376;8.762;2024-02-28T08:59:33;22.20;;;14.23;;
23702;SDS011;12030;50.376;8.762;2024-02-28T09:01:59;22.93;;;14.67;;
23702;SDS011;12030;50.376;8.762;2024-02-28T09:04:25;21.87;;;13.87;;
23702;SDS011;12030;50.376;8.762;2024-02-28T09:06:50;26.07;;;14.83;;
23702;SDS011;12030;50.376;8.762;2024-02-28T09:09:18;26.40;;;14.80;;
23702;SDS011;12030;50.376;8.762;2024-02-28T09:11:43;26.33;;;15.60;;
23702;SDS011;12030;50.376;8.762;2024-02-28T09:14:09;25.23;;;14.63;;
23702;SDS011;12030;50.376;8.762;2024-02-28T09:16:34;23.50;;;14.80;;
23702;SDS011;12030;50.376;8.762;2024-02-28T09:19:00;22.53;;;14.40;;
23702;SDS011;12030;50.376;8.762;2024-02-28T09:21:25;25.73;;;15.93;;
23702;SDS011;12030;50.376;8.762;2024-02-28T09:23:51;26.30;;;16.10;;
23702;SDS011;12030;50.376;8.762;2024-02-28T09:26:16;26.67;;;15.33;;
23702;SDS011;12030;50.376;8.762;2024-02-28T09:28:42;25.50;;;15.07;;
23702;SDS011;12030;50.376;8.762;2024-02-28T09:31:07;25.00;;;16.10;;
23702;SDS011;12030;50.376;8.762;2024-02-28T09:33:34;28.63;;;15.83;;
23702;SDS011;12030;50.376;8.762;2024-02-28T09:36:01;26.03;;;15.87;;
23702;SDS011;12030;50.376;8.762;2024-02-28T09:38:27;25.13;;;15.23;;
23702;SDS011;12030;50.376;8.762;2024-02-28T09:40:54;24.03;;;15.57;;
23702;SDS011;12030;50.376;8.762;2024-02-28T09:43:40;26.70;;;16.00;;
23702;SDS011;12030;50.376;8.762;2024-02-28T09:46:07;29.20;;;17.13;;
23702;SDS011;12030;50.376;8.762;2024-02-28T09:48:36;29.93;;;17.27;;
23702;SDS011;12030;50.376;8.762;2024-02-28T09:51:04;29.10;;;17.47;;
23702;SDS011;12030;50.376;8.762;2024-02-28T09:53:30;31.83;;;17.70;;
23702;SDS011;12030;50.376;8.762;2024-02-28T09:55:56;27.17;;;17.43;;
23702;SDS011;12030;50.376;8.762;2024-02-28T09:58:21;28.20;;;17.67;;
23702;SDS011;12030;50.376;8.762;2024-02-28T10:00:48;31.10;;;18.23;;
23702;SDS011;12030;50.376;8.762;2024-02-28T10:03:16;27.20;;;17.53;;
23702;SDS011;12030;50.376;8.762;2024-02-28T10:05:46;31.40;;;18.90;;
23702;SDS011;12030;50.376;8.762;2024-02-28T10:08:12;29.30;;;16.80;;
23702;SDS011;12030;50.376;8.762;2024-02-28T10:10:44;33.50;;;19.40;;
23702;SDS011;12030;50.376;8.762;2024-02-28T10:13:13;30.93;;;18.97;;
23702;SDS011;12030;50.376;8.762;2024-02-28T10:15:42;32.17;;;18.20;;
23702;SDS011;12030;50.376;8.762;2024-02-28T10:18:07;31.57;;;18.17;;
23702;SDS011;12030;50.376;8.762;2024-02-28T10:20:33;29.03;;;17.47;;
23702;SDS011;12030;50.376;8.762;2024-02-28T10:23:02;30.10;;;18.17;;
23702;SDS011;12030;50.376;8.762;2024-02-28T10:25:30;28.47;;;18.97;;
23702;SDS011;12030;50.376;8.762;2024-02-28T10:27:59;32.50;;;19.70;;
23702;SDS011;12030;50.376;8.762;2024-02-28T10:30:25;33.60;;;19.07;;
23702;SDS011;12030;50.376;8.762;2024-02-28T10:32:51;30.60;;;18.07;;
23702;SDS011;12030;50.376;8.762;2024-02-28T10:35:17;27.90;;;17.83;;
23702;SDS011;12030;50.376;8.762;2024-02-28T10:37:50;31.83;;;18.50;;
23702;SDS011;12030;50.376;8.762;2024-02-28T10:40:16;28.27;;;19.03;;
23702;SDS011;12030;50.376;8.762;2024-02-28T10:42:42;30.27;;;19.60;;
23702;SDS011;12030;50.376;8.762;2024-02-28T10:45:11;29.07;;;19.40;;
23702;SDS011;12030;50.376;8.762;2024-02-28T10:47:38;26.93;;;17.73;;
23702;SDS011;12030;50.376;8.762;2024-02-28T10:50:04;27.07;;;18.13;;
23702;SDS011;12030;50.376;8.762;2024-02-28T10:52:31;29.30;;;18.07;;
23702;SDS011;12030;50.376;8.762;2024-02-28T10:54:59;30.23;;;19.47;;
23702;SDS011;12030;50.376;8.762;2024-02-28T10:57:26;27.40;;;18.23;;
23702;SDS011;12030;50.376;8.762;2024-02-28T10:59:54;26.87;;;19.23;;
23702;SDS011;12030;50.376;8.762;2024-02-28T11:02:21;27.40;;;18.63;;
23702;SDS011;12030;50.376;8.762;2024-02-28T11:04:48;29.40;;;19.87;;
23702;SDS011;12030;50.376;8.762;2024-02-28T11:07:19;27.80;;;18.93;;
23702;SDS011;12030;50.376;8.762;2024-02-28T11:09:46;24.93;;;17.57;;
23702;SDS011;12030;50.376;8.762;2024-02-28T11:12:32;26.87;;;19.73;;
23702;SDS011;12030;50.376;8.762;2024-02-28T11:14:58;28.17;;;18.20;;
23702;SDS011;12030;50.376;8.762;2024-02-28T11:17:28;24.97;;;18.23;;
23702;SDS011;12030;50.376;8.762;2024-02-28T11:19:54;25.73;;;18.70;;
23702;SDS011;12030;50.376;8.762;2024-02-28T11:22:21;27.53;;;18.87;;
23702;SDS011;12030;50.376;8.762;2024-02-28T11:24:47;27.37;;;18.80;;
23702;SDS011;12030;50.376;8.762;2024-02-28T11:27:16;24.70;;;18.13;;
23702;SDS011;12030;50.376;8.762;2024-02-28T11:29:41;26.87;;;19.90;;
23702;SDS011;12030;50.376;8.762;2024-02-28T11:32:07;25.80;;;18.73;;
23702;SDS011;12030;50.376;8.762;2024-02-28T11:34:36;27.20;;;18.20;;
23702;SDS011;12030;50.376;8.762;2024-02-28T11:37:02;26.70;;;18.73;;
23702;SDS011;12030;50.376;8.762;2024-02-28T11:39:28;26.33;;;18.73;;
23702;SDS011;12030;50.376;8.762;2024-02-28T11:42:07;28.93;;;19.30;;
23702;SDS011;12030;50.376;8.762;2024-02-28T11:44:36;25.47;;;17.93;;
23702;SDS011;12030;50.376;8.762;2024-02-28T11:47:01;25.57;;;18.30;;
23702;SDS011;12030;50.376;8.762;2024-02-28T11:49:27;26.20;;;18.47;;
23702;SDS011;12030;50.376;8.762;2024-02-28T11:51:53;23.10;;;17.73;;
23702;SDS011;12030;50.376;8.762;2024-02-28T11:54:18;26.73;;;18.27;;
23702;SDS011;12030;50.376;8.762;2024-02-28T11:56:44;25.90;;;18.73;;
23702;SDS011;12030;50.376;8.762;2024-02-28T11:59:10;25.57;;;18.13;;
23702;SDS011;12030;50.376;8.762;2024-02-28T12:01:37;26.13;;;17.77;;
23702;SDS011;12030;50.376;8.762;2024-02-28T12:04:08;24.33;;;17.60;;
23702;SDS011;12030;50.376;8.762;2024-02-28T12:06:35;25.67;;;18.50;;
23702;SDS011;12030;50.376;8.762;2024-02-28T12:09:04;25.40;;;18.20;;
23702;SDS011;12030;50.376;8.762;2024-02-28T12:11:36;23.97;;;17.40;;
23702;SDS011;12030;50.376;8.762;2024-02-28T12:14:03;26.43;;;18.90;;
23702;SDS011;12030;50.376;8.762;2024-02-28T12:16:30;25.30;;;18.73;;
23702;SDS011;12030;50.376;8.762;2024-02-28T12:18:55;23.83;;;18.03;;
23702;SDS011;12030;50.376;8.762;2024-02-28T12:21:21;25.30;;;19.23;;
23702;SDS011;12030;50.376;8.762;2024-02-28T12:23:47;25.17;;;18.77;;
23702;SDS011;12030;50.376;8.762;2024-02-28T12:26:13;25.50;;;18.53;;
23702;SDS011;12030;50.376;8.762;2024-02-28T12:28:39;23.03;;;18.07;;
23702;SDS011;12030;50.376;8.762;2024-02-28T12:31:05;24.47;;;17.53;;
23702;SDS011;12030;50.376;8.762;2024-02-28T12:33:34;24.43;;;18.70;;
23702;SDS011;12030;50.376;8.762;2024-02-28T12:36:00;28.80;;;20.03;;
23702;SDS011;12030;50.376;8.762;2024-02-28T12:38:28;24.20;;;18.00;;
23702;SDS011;12030;50.376;8.762;2024-02-28T12:40:54;24.67;;;18.77;;
23702;SDS011;12030;50.376;8.762;2024-02-28T12:43:19;23.80;;;18.00;;
23702;SDS011;12030;50.376;8.762;2024-02-28T12:45:45;23.93;;;18.13;;
23702;SDS011;12030;50.376;8.762;2024-02-28T12:48:10;24.97;;;18.20;;
23702;SDS011;12030;50.376;8.762;2024-02-28T12:50:36;25.80;;;18.97;;
23702;SDS011;12030;50.376;8.762;2024-02-28T12:53:02;27.27;;;19.07;;
23702;SDS011;12030;50.376;8.762;2024-02-28T12:55:28;23.90;;;18.10;;
23702;SDS011;12030;50.376;8.762;2024-02-28T12:57:54;25.37;;;18.67;;
23702;SDS011;12030;50.376;8.762;2024-02-28T13:00:20;23.80;;;17.33;;
23702;SDS011;12030;50.376;8.762;2024-02-28T13:02:46;25.70;;;18.70;;
23702;SDS011;12030;50.376;8.762;2024-02-28T13:05:12;22.87;;;17.73;;
23702;SDS011;12030;50.376;8.762;2024-02-28T13:07:38;23.13;;;17.63;;
23702;SDS011;12030;50.376;8.762;2024-02-28T13:10:04;24.47;;;17.73;;
23702;SDS011;12030;50.376;8.762;2024-02-28T13:12:31;24.53;;;18.67;;
23702;SDS011;12030;50.376;8.762;2024-02-28T13:14:57;21.30;;;16.77;;
23702;SDS011;12030;50.376;8.762;2024-02-28T13:17:23;27.67;;;18.23;;
23702;SDS011;12030;50.376;8.762;2024-02-28T13:19:48;24.70;;;17.33;;
23702;SDS011;12030;50.376;8.762;2024-02-28T13:22:14;24.77;;;18.13;;
23702;SDS011;12030;50.376;8.762;2024-02-28T13:24:39;23.23;;;17.30;;
23702;SDS011;12030;50.376;8.762;2024-02-28T13:27:05;24.17;;;18.43;;
23702;SDS011;12030;50.376;8.762;2024-02-28T13:29:30;22.83;;;18.00;;
23702;SDS011;12030;50.376;8.762;2024-02-28T13:31:57;23.87;;;17.53;;
23702;SDS011;12030;50.376;8.762;2024-02-28T13:34:23;24.17;;;16.47;;
23702;SDS011;12030;50.376;8.762;2024-02-28T13:36:49;23.60;;;16.53;;
23702;SDS011;12030;50.376;8.762;2024-02-28T13:39:15;24.13;;;17.97;;
23702;SDS011;12030;50.376;8.762;2024-02-28T13:41:41;23.00;;;16.43;;
23702;SDS011;12030;50.376;8.762;2024-02-28T13:44:07;20.50;;;16.13;;
23702;SDS011;12030;50.376;8.762;2024-02-28T13:46:34;22.60;;;16.70;;
23702;SDS011;12030;50.376;8.762;2024-02-28T13:49:00;21.33;;;15.93;;
23702;SDS011;12030;50.376;8.762;2024-02-28T13:51:25;23.50;;;17.00;;
23702;SDS011;12030;50.376;8.762;2024-02-28T13:53:51;23.00;;;17.23;;
23702;SDS011;12030;50.376;8.762;2024-02-28T13:56:19;22.20;;;17.00;;
23702;SDS011;12030;50.376;8.762;2024-02-28T13:58:44;23.07;;;17.23;;
23702;SDS011;12030;50.376;8.762;2024-02-28T14:01:10;23.70;;;16.77;;
23702;SDS011;12030;50.376;8.762;2024-02-28T14:03:35;19.73;;;16.27;;
23702;SDS011;12030;50.376;8.762;2024-02-28T14:06:02;25.43;;;17.33;;
23702;SDS011;12030;50.376;8.762;2024-02-28T14:08:27;22.87;;;16.30;;
23702;SDS011;12030;50.376;8.762;2024-02-28T14:10:53;22.27;;;15.70;;
23702;SDS011;12030;50.376;8.762;2024-02-28T14:13:19;21.73;;;16.63;;
23702;SDS011;12030;50.376;8.762;2024-02-28T14:15:44;23.13;;;17.00;;
23702;SDS011;12030;50.376;8.762;2024-02-28T14:18:15;21.13;;;15.40;;